Time;durP1;ratioP1;P1;durP2;ratioP2;P2;SDS_P1;SDS_P2;PMS_P1;PMS_P2;Temp;Humidity;BMP_temperature;BMP_pressure;BME280_temperature;BME280_humidity;BME280_pressure;Samples;Min_cycle;Max_cycle;Signal;HPM_P1;HPM_P2
2022/06/05 00:01:57;;;;;;;18.15;9.52;;;11.80;99.90;;;;;;5052568;28;20045;-82
2022/06/05 00:05:02;;;;;;;13.27;9.18;;;11.70;99.90;;;;;;5055395;28;20041;-84
2022/06/05 00:07:41;;;;;;;16.02;9.75;;;11.70;99.90;;;;;;5055045;28;20378;-84
2022/06/05 00:10:20;;;;;;;14.95;9.27;;;11.60;99.90;;;;;;5056042;28;20375;-84
2022/06/05 00:12:54;;;;;;;17.13;9.15;;;11.60;99.90;;;;;;5056001;28;20394;-82
2022/06/05 00:15:20;;;;;;;13.90;9.73;;;11.60;99.90;;;;;;5054855;28;20037;-85
2022/06/05 00:17:45;;;;;;;11.90;10.00;;;11.50;99.90;;;;;;5054748;28;20048;-84
2022/06/05 00:20:12;;;;;;;16.83;9.63;;;11.60;99.90;;;;;;5038330;28;20426;-85
2022/06/05 00:22:39;;;;;;;14.93;11.02;;;11.50;99.90;;;;;;5054895;28;20076;-82
2022/06/05 00:25:06;;;;;;;17.48;10.15;;;11.50;99.90;;;;;;5055618;28;20477;-82
2022/06/05 00:27:53;;;;;;;17.10;10.45;;;11.50;99.90;;;;;;5055882;28;20037;-83
2022/06/05 00:30:23;;;;;;;15.43;9.98;;;11.50;99.90;;;;;;5054346;28;20474;-84
2022/06/05 00:33:12;;;;;;;13.80;9.85;;;11.50;99.90;;;;;;5054121;28;20478;-84
2022/06/05 00:36:13;;;;;;;16.23;9.90;;;11.50;99.90;;;;;;5054490;28;20045;-82
2022/06/05 00:38:59;;;;;;;16.98;11.20;;;11.50;99.90;;;;;;5013535;28;20137;-81
2022/06/05 00:41:40;;;;;;;15.25;11.20;;;11.50;99.90;;;;;;5013554;28;20045;-86
2022/06/05 00:44:08;;;;;;;18.63;11.48;;;11.50;99.90;;;;;;5013515;28;20053;-84
2022/06/05 00:46:37;;;;;;;14.95;10.77;;;11.40;99.90;;;;;;4997317;28;20125;-84
2022/06/05 00:49:05;;;;;;;21.65;12.00;;;11.50;99.90;;;;;;4996991;28;20050;-85
2022/06/05 00:51:31;;;;;;;18.60;11.07;;;11.50;99.90;;;;;;4980700;28;20057;-80
2022/06/05 00:53:57;;;;;;;18.10;11.55;;;11.50;99.90;;;;;;5013300;28;20472;-83
2022/06/05 00:56:22;;;;;;;18.10;11.65;;;11.50;99.90;;;;;;4997022;28;20138;-83
2022/06/05 00:58:48;;;;;;;17.25;10.82;;;11.50;99.90;;;;;;5013171;28;20050;-83
2022/06/05 01:01:13;;;;;;;19.05;11.13;;;11.50;99.90;;;;;;5013214;28;20046;-90
2022/06/05 01:03:39;;;;;;;20.45;11.95;;;11.40;99.90;;;;;;4996877;28;20172;-84
2022/06/05 01:06:05;;;;;;;21.92;11.60;;;11.50;99.90;;;;;;4996787;28;20129;-83
2022/06/05 01:08:30;;;;;;;22.08;12.00;;;11.40;99.90;;;;;;5013117;28;20100;-85
2022/06/05 01:11:10;;;;;;;15.20;10.73;;;11.40;99.90;;;;;;4980183;28;20515;-84
2022/06/05 01:13:57;;;;;;;23.60;12.57;;;11.40;99.90;;;;;;5012721;28;20052;-83
2022/06/05 01:16:30;;;;;;;17.70;11.77;;;11.30;99.90;;;;;;5030914;28;20053;-81
2022/06/05 01:19:20;;;;;;;19.98;12.85;;;11.30;99.90;;;;;;5054869;28;20049;-84
2022/06/05 01:22:25;;;;;;;15.20;11.27;;;11.20;99.90;;;;;;5053777;28;20446;-83
2022/06/05 01:25:06;;;;;;;22.42;11.80;;;11.20;99.90;;;;;;5053530;28;20033;-84
2022/06/05 01:27:36;;;;;;;21.42;13.00;;;11.20;99.90;;;;;;5053653;28;20133;-84
2022/06/05 01:30:23;;;;;;;20.02;12.35;;;11.10;99.90;;;;;;5054506;28;20040;-84
2022/06/05 01:33:01;;;;;;;17.88;11.57;;;11.10;99.90;;;;;;5054651;28;20178;-81
2022/06/05 01:35:37;;;;;;;17.48;12.35;;;11.20;99.90;;;;;;5036635;28;20370;-85
2022/06/05 01:38:17;;;;;;;19.67;12.05;;;11.10;99.90;;;;;;5036819;28;20041;-81
2022/06/05 01:40:46;;;;;;;22.07;13.20;;;11.10;99.90;;;;;;5053247;28;20534;-83
2022/06/05 01:43:22;;;;;;;20.80;12.23;;;11.10;99.90;;;;;;5054265;28;20162;-82
2022/06/05 01:45:55;;;;;;;22.15;13.18;;;11.10;99.90;;;;;;5054146;28;20088;-82
2022/06/05 01:48:46;;;;;;;21.35;13.60;;;11.10;99.90;;;;;;5053942;28;20428;-83
2022/06/05 01:51:29;;;;;;;19.88;13.20;;;11.10;99.90;;;;;;5054103;28;20367;-82
2022/06/05 01:53:57;;;;;;;17.48;12.20;;;11.10;99.90;;;;;;5036448;28;20061;-81
2022/06/05 01:56:46;;;;;;;21.02;13.77;;;11.10;99.90;;;;;;5052974;28;20044;-84
2022/06/05 01:59:24;;;;;;;18.80;13.85;;;11.10;99.90;;;;;;5052960;28;20047;-81
2022/06/05 02:01:56;;;;;;;22.15;13.02;;;11.10;99.90;;;;;;5052723;28;20387;-83
2022/06/05 02:04:40;;;;;;;21.92;14.45;;;11.10;99.90;;;;;;5052819;28;20061;-84
2022/06/05 02:07:16;;;;;;;21.15;14.43;;;11.20;99.90;;;;;;5052657;28;20110;-83
2022/06/05 02:10:00;;;;;;;24.90;14.63;;;11.10;99.90;;;;;;5052706;28;20505;-84
2022/06/05 02:12:26;;;;;;;21.50;13.95;;;11.10;99.90;;;;;;5053806;28;20048;-83
2022/06/05 02:14:52;;;;;;;24.13;15.23;;;11.10;99.90;;;;;;5053814;28;20381;-82
2022/06/05 02:17:18;;;;;;;24.73;13.68;;;11.00;99.90;;;;;;5052625;28;20470;-84
2022/06/05 02:19:44;;;;;;;20.48;13.90;;;11.10;99.90;;;;;;5053339;28;20043;-84
2022/06/05 02:22:26;;;;;;;23.20;14.80;;;11.10;99.90;;;;;;5053688;28;20040;-84
2022/06/05 02:24:53;;;;;;;23.52;15.88;;;11.10;99.90;;;;;;5052037;28;20631;-85
2022/06/05 02:27:24;;;;;;;26.15;15.55;;;11.10;99.90;;;;;;5052540;28;20057;-84
2022/06/05 02:29:51;;;;;;;23.25;15.23;;;11.10;99.90;;;;;;5053259;28;20375;-83
2022/06/05 02:32:54;;;;;;;26.95;15.15;;;11.10;99.90;;;;;;5053268;28;20413;-85
2022/06/05 02:35:49;;;;;;;28.95;16.17;;;11.10;99.90;;;;;;5052467;28;20049;-84
2022/06/05 02:38:21;;;;;;;21.75;15.38;;;11.10;99.90;;;;;;5053157;28;20123;-84
2022/06/05 02:41:08;;;;;;;24.25;16.23;;;11.00;99.90;;;;;;5052079;28;20045;-82
2022/06/05 02:46:57;;;;;;;22.35;15.23;;;11.00;99.90;;;;;;5052163;28;20136;-84
2022/06/05 02:49:39;;;;;;;26.02;16.23;;;11.00;99.90;;;;;;5035440;28;20394;-84
2022/06/05 02:52:06;;;;;;;27.67;17.25;;;11.00;99.90;;;;;;5034974;28;20397;-86
2022/06/05 02:54:40;;;;;;;23.30;16.17;;;11.10;99.90;;;;;;5052346;28;20048;-85
2022/06/05 02:57:06;;;;;;;25.52;16.67;;;11.20;99.90;;;;;;5052144;28;20045;-83
2022/06/05 02:59:32;;;;;;;25.50;16.75;;;11.10;99.90;;;;;;5052859;28;20045;-84
2022/06/05 03:04:42;;;;;;;21.85;15.75;;;11.10;99.90;;;;;;5052240;28;20110;-85
2022/06/05 03:07:08;;;;;;;24.13;15.65;;;11.10;99.90;;;;;;5052002;28;20041;-85
2022/06/05 03:09:34;;;;;;;27.65;16.73;;;11.10;99.90;;;;;;5053140;28;20123;-84
2022/06/05 03:12:01;;;;;;;34.38;17.25;;;11.10;99.90;;;;;;5053043;28;20076;-84
2022/06/05 03:14:26;;;;;;;25.05;16.95;;;11.10;99.90;;;;;;5035442;28;20474;-85
2022/06/05 03:16:52;;;;;;;22.67;15.40;;;11.10;99.90;;;;;;5052939;28;20123;-82
2022/06/05 03:19:18;;;;;;;23.75;15.88;;;11.20;99.90;;;;;;5053146;28;20378;-86
2022/06/05 03:21:43;;;;;;;27.02;16.17;;;11.20;99.90;;;;;;5035090;28;20381;-85
2022/06/05 03:24:09;;;;;;;26.73;16.15;;;11.10;99.90;;;;;;5051787;28;20045;-84
2022/06/05 03:26:35;;;;;;;24.85;16.40;;;11.10;99.90;;;;;;5051961;28;20037;-85
2022/06/05 03:29:02;;;;;;;22.02;15.38;;;11.10;99.90;;;;;;5051372;28;20090;-84
2022/06/05 03:31:28;;;;;;;24.27;16.05;;;11.10;99.90;;;;;;5052653;28;20386;-85
2022/06/05 03:33:55;;;;;;;22.40;15.85;;;11.20;99.90;;;;;;5052630;28;20049;-83
2022/06/05 03:36:20;;;;;;;25.73;16.23;;;11.10;99.90;;;;;;5052566;28;20436;-84
2022/06/05 03:38:46;;;;;;;25.52;16.65;;;11.10;99.90;;;;;;5056294;28;20036;-84
2022/06/05 03:41:15;;;;;;;22.95;16.20;;;11.20;99.90;;;;;;5055277;28;20131;-84
2022/06/05 03:43:42;;;;;;;26.70;15.73;;;11.10;99.90;;;;;;5038721;28;20182;-82
2022/06/05 03:46:10;;;;;;;26.00;15.95;;;11.10;99.90;;;;;;5056758;28;20041;-85
2022/06/05 03:48:37;;;;;;;20.80;14.50;;;11.20;99.90;;;;;;5056756;28;20119;-85
2022/06/05 03:51:06;;;;;;;21.33;14.32;;;11.10;99.90;;;;;;5055114;28;20114;-88
2022/06/05 03:53:32;;;;;;;21.35;15.15;;;11.10;99.90;;;;;;5055248;28;20072;-84
2022/06/05 03:55:58;;;;;;;22.85;15.88;;;11.10;99.90;;;;;;5055016;28;20146;-84
2022/06/05 03:58:23;;;;;;;24.98;16.05;;;11.20;99.90;;;;;;5055063;28;20036;-84
2022/06/05 04:00:52;;;;;;;21.38;15.30;;;11.20;99.90;;;;;;5055449;28;20053;-83
2022/06/05 04:03:17;;;;;;;23.52;16.60;;;11.20;99.90;;;;;;5054805;28;20473;-84
2022/06/05 04:05:44;;;;;;;24.55;15.77;;;11.30;99.90;;;;;;5056281;28;20044;-84
2022/06/05 04:08:11;;;;;;;21.50;15.82;;;11.20;99.90;;;;;;5056068;28;20041;-84
2022/06/05 04:10:37;;;;;;;21.00;15.40;;;11.30;99.90;;;;;;5055897;28;20043;-82
2022/06/05 04:13:03;;;;;;;23.33;16.27;;;11.30;99.90;;;;;;5054762;28;20036;-85
2022/06/05 04:15:28;;;;;;;22.92;15.85;;;11.40;99.90;;;;;;5056034;28;20125;-82
2022/06/05 04:17:54;;;;;;;23.10;16.88;;;11.40;99.90;;;;;;5056015;28;20044;-84
2022/06/05 04:20:20;;;;;;;22.80;16.30;;;11.50;99.90;;;;;;5055912;28;20041;-84
2022/06/05 04:22:45;;;;;;;23.50;15.95;;;11.50;99.90;;;;;;5055745;28;20386;-83
2022/06/05 04:25:14;;;;;;;22.58;15.82;;;11.70;99.90;;;;;;5054536;28;20173;-84
2022/06/05 04:27:39;;;;;;;24.73;16.15;;;11.70;99.90;;;;;;5055547;28;20037;-84
2022/06/05 04:30:06;;;;;;;24.00;16.23;;;11.80;99.90;;;;;;5055783;28;20044;-84
2022/06/05 04:32:32;;;;;;;23.60;15.13;;;11.90;99.90;;;;;;5054480;28;20052;-82
2022/06/05 04:34:57;;;;;;;23.15;16.10;;;12.00;99.90;;;;;;5055835;28;20044;-83
2022/06/05 04:37:23;;;;;;;27.17;16.27;;;12.10;99.90;;;;;;5055468;28;20037;-83
2022/06/05 04:39:48;;;;;;;20.33;14.88;;;12.40;99.90;;;;;;5054440;28;20057;-84
2022/06/05 04:42:14;;;;;;;22.67;14.45;;;12.30;99.90;;;;;;5054498;28;20033;-84
2022/06/05 04:44:40;;;;;;;20.33;14.18;;;12.40;99.90;;;;;;5037597;28;20519;-83
2022/06/05 04:47:05;;;;;;;25.70;14.50;;;12.50;99.90;;;;;;5054568;28;20371;-83
2022/06/05 04:49:31;;;;;;;18.85;15.02;;;12.50;99.90;;;;;;5053609;28;20040;-83
2022/06/05 04:51:56;;;;;;;20.40;15.18;;;12.60;99.90;;;;;;5053949;28;20052;-81
2022/06/05 04:54:22;;;;;;;23.10;14.32;;;12.70;99.90;;;;;;5055191;28;20052;-82
2022/06/05 04:56:48;;;;;;;20.30;14.60;;;12.70;99.90;;;;;;5054170;28;20359;-84
2022/06/05 04:59:14;;;;;;;20.95;14.88;;;12.80;99.90;;;;;;5037421;28;20040;-84
2022/06/05 05:01:40;;;;;;;18.10;13.65;;;12.90;99.90;;;;;;5054235;28;20098;-84
2022/06/05 05:04:12;;;;;;;23.48;14.65;;;13.00;99.90;;;;;;5055176;28;20041;-84
2022/06/05 05:06:39;;;;;;;18.63;13.90;;;13.10;99.90;;;;;;5055163;28;20084;-83
2022/06/05 05:09:05;;;;;;;22.25;14.32;;;13.20;99.90;;;;;;5053930;28;20080;-84
2022/06/05 05:11:32;;;;;;;18.52;14.10;;;13.20;99.90;;;;;;5053916;28;20098;-81
2022/06/05 05:14:01;;;;;;;19.63;13.55;;;13.30;99.90;;;;;;5054674;28;20402;-82
2022/06/05 05:16:28;;;;;;;20.85;13.27;;;13.50;99.90;;;;;;5053697;28;20478;-85
2022/06/05 05:18:55;;;;;;;17.50;13.50;;;13.50;99.90;;;;;;5054875;28;20052;-84
2022/06/05 05:21:23;;;;;;;19.10;13.38;;;13.50;99.90;;;;;;5054674;28;20048;-84
2022/06/05 05:23:49;;;;;;;17.38;12.73;;;13.60;99.90;;;;;;5053589;28;20045;-83
2022/06/05 05:26:15;;;;;;;17.35;12.95;;;13.80;99.90;;;;;;5053454;28;20175;-83
2022/06/05 05:28:42;;;;;;;19.10;13.90;;;13.70;99.90;;;;;;5053567;28;20060;-84
2022/06/05 05:31:11;;;;;;;16.10;12.80;;;13.80;99.90;;;;;;5054535;28;20051;-84
2022/06/05 05:33:38;;;;;;;17.10;12.35;;;13.80;99.90;;;;;;5054524;28;20064;-83
2022/06/05 05:36:04;;;;;;;16.75;11.70;;;13.90;99.90;;;;;;5054330;28;20045;-84
2022/06/05 05:38:29;;;;;;;17.95;12.85;;;14.00;99.90;;;;;;5054548;28;20071;-83
2022/06/05 05:43:39;;;;;;;17.30;12.40;;;14.30;99.90;;;;;;5053328;28;20059;-83
2022/06/05 05:46:12;;;;;;;16.17;12.25;;;14.40;99.90;;;;;;5054248;28;20041;-83
2022/06/05 05:48:38;;;;;;;12.68;10.38;;;14.50;99.90;;;;;;5054004;28;20505;-84
2022/06/05 05:51:11;;;;;;;15.95;11.88;;;14.60;99.90;;;;;;5054221;28;20033;-84
2022/06/05 05:53:36;;;;;;;20.23;12.48;;;14.70;99.90;;;;;;5053085;28;20049;-84
2022/06/05 05:56:06;;;;;;;14.88;12.07;;;14.80;99.90;;;;;;5052923;28;20470;-84
2022/06/05 05:58:32;;;;;;;15.27;11.77;;;15.00;99.90;;;;;;5053355;28;20067;-84
2022/06/05 06:01:04;;;;;;;17.48;11.00;;;15.00;99.90;;;;;;5059857;28;20082;-84
2022/06/05 06:03:29;;;;;;;15.88;11.70;;;15.10;99.90;;;;;;5051495;28;20059;-85
2022/06/05 06:05:59;;;;;;;14.85;11.45;;;15.20;99.90;;;;;;5064392;28;20052;-82
2022/06/05 06:08:25;;;;;;;14.73;10.68;;;15.30;99.90;;;;;;5058428;28;20063;-83
2022/06/05 06:10:50;;;;;;;15.77;11.60;;;15.30;99.90;;;;;;5052222;28;20032;-83
2022/06/05 06:13:16;;;;;;;16.70;11.07;;;15.40;99.90;;;;;;5053084;28;20049;-82
2022/06/05 06:15:42;;;;;;;15.20;10.73;;;15.50;99.90;;;;;;5058103;28;20098;-84
2022/06/05 06:18:08;;;;;;;15.98;11.40;;;15.60;99.90;;;;;;5052148;28;20049;-83
2022/06/05 06:20:33;;;;;;;14.00;10.93;;;15.80;99.90;;;;;;5053951;28;20394;-84
2022/06/05 06:22:59;;;;;;;13.15;9.90;;;15.90;99.90;;;;;;5064542;28;20059;-84
2022/06/05 06:25:25;;;;;;;14.77;10.48;;;16.00;99.90;;;;;;5055199;28;20041;-81
2022/06/05 06:27:50;;;;;;;13.68;10.90;;;16.20;99.90;;;;;;5071811;28;20044;-82
2022/06/05 06:30:16;;;;;;;16.25;9.88;;;16.30;99.90;;;;;;5055378;28;20059;-84
2022/06/05 06:32:41;;;;;;;13.30;10.88;;;16.40;99.90;;;;;;5057272;28;20083;-83
2022/06/05 06:35:09;;;;;;;14.10;10.65;;;16.60;99.90;;;;;;5058700;28;20056;-83
2022/06/05 06:37:35;;;;;;;13.65;11.23;;;16.70;99.90;;;;;;5035183;28;20060;-83
2022/06/05 06:40:00;;;;;;;13.98;10.10;;;16.80;99.90;;;;;;5059300;28;20499;-84
2022/06/05 06:42:26;;;;;;;14.52;10.23;;;17.10;99.90;;;;;;5053310;28;20045;-83
2022/06/05 06:44:52;;;;;;;15.82;9.63;;;17.40;99.90;;;;;;5055458;28;20468;-84
2022/06/05 06:47:18;;;;;;;13.52;10.40;;;17.60;99.90;;;;;;5052256;28;20045;-84
2022/06/05 06:49:43;;;;;;;13.48;10.32;;;17.90;99.90;;;;;;5054172;28;20080;-85
2022/06/05 06:52:09;;;;;;;12.52;9.63;;;18.20;99.90;;;;;;5051848;28;20098;-87
2022/06/05 06:54:35;;;;;;;13.20;10.00;;;18.50;99.90;;;;;;5056284;28;20045;-83
2022/06/05 06:57:00;;;;;;;12.68;9.90;;;18.80;99.90;;;;;;5071102;28;20047;-83
2022/06/05 06:59:27;;;;;;;15.10;9.90;;;19.00;99.90;;;;;;5045439;28;20056;-84
2022/06/05 07:01:53;;;;;;;13.35;9.57;;;19.20;99.90;;;;;;5052497;28;20128;-83
2022/06/05 07:04:19;;;;;;;13.60;9.95;;;19.40;99.90;;;;;;5054690;28;20136;-84
2022/06/05 07:06:44;;;;;;;11.43;9.35;;;19.50;99.90;;;;;;5061241;28;20036;-85
2022/06/05 07:09:13;;;;;;;15.48;10.05;;;19.50;99.90;;;;;;5054096;28;20077;-84
2022/06/05 07:11:39;;;;;;;11.38;9.43;;;19.50;99.90;;;;;;5055487;28;20041;-89
2022/06/05 07:14:05;;;;;;;15.55;9.38;;;19.50;99.90;;;;;;5050567;28;20155;-84
2022/06/05 07:16:30;;;;;;;10.52;9.18;;;19.50;99.90;;;;;;5037373;28;20398;-85
2022/06/05 07:18:56;;;;;;;13.00;9.20;;;19.60;99.90;;;;;;5053212;28;20119;-85
2022/06/05 07:21:24;;;;;;;10.95;8.88;;;19.70;99.90;;;;;;5057827;28;20186;-85
2022/06/05 07:23:50;;;;;;;11.48;8.30;;;19.80;99.90;;;;;;5051601;28;20075;-84
2022/06/05 07:26:17;;;;;;;9.32;8.32;;;20.00;99.90;;;;;;5056238;28;20133;-84
2022/06/05 07:28:43;;;;;;;12.95;8.30;;;20.20;99.90;;;;;;5053728;28;20522;-84
2022/06/05 07:31:10;;;;;;;12.48;8.50;;;20.30;99.90;;;;;;5051363;28;20041;-84
2022/06/05 07:33:36;;;;;;;11.40;8.45;;;20.60;99.90;;;;;;5032870;28;20068;-83
2022/06/05 07:36:05;;;;;;;9.05;7.82;;;20.90;99.90;;;;;;5051560;28;20506;-84
2022/06/05 07:38:33;;;;;;;8.80;7.88;;;21.10;99.90;;;;;;5050874;28;20778;-86
2022/06/05 07:40:59;;;;;;;9.98;8.20;;;21.10;99.90;;;;;;5050332;28;20502;-85
2022/06/05 07:43:25;;;;;;;11.27;7.60;;;21.20;99.90;;;;;;5057168;28;20040;-84
2022/06/05 07:45:51;;;;;;;11.35;8.10;;;21.10;99.90;;;;;;5050815;28;20406;-84
2022/06/05 07:48:19;;;;;;;8.18;7.07;;;21.20;99.90;;;;;;5052037;28;20052;-84
2022/06/05 07:56:14;;;;;;;12.95;8.15;;;21.50;99.90;;;;;;5057129;28;20487;-82
2022/06/05 07:58:40;;;;;;;9.52;8.48;;;21.60;99.90;;;;;;5043116;28;20078;-84
2022/06/05 08:01:07;;;;;;;8.95;7.63;;;21.60;99.90;;;;;;5041660;28;20416;-85
2022/06/05 08:03:34;;;;;;;11.40;7.60;;;21.60;99.90;;;;;;5053228;28;20057;-83
2022/06/05 08:05:59;;;;;;;10.38;7.45;;;21.70;99.90;;;;;;5054882;28;20174;-84
2022/06/05 08:08:25;;;;;;;8.30;6.93;;;21.70;99.90;;;;;;5054022;28;20136;-87
2022/06/05 08:10:51;;;;;;;9.30;6.88;;;21.90;99.90;;;;;;5051365;28;20297;-83
2022/06/05 08:13:16;;;;;;;9.18;6.88;;;22.20;99.90;;;;;;5064191;28;20032;-82
2022/06/05 08:15:45;;;;;;;12.32;6.88;;;22.50;99.90;;;;;;5055383;28;20056;-84
2022/06/05 08:18:11;;;;;;;7.88;6.75;;;22.60;99.90;;;;;;5057146;28;20053;-84
2022/06/05 08:20:38;;;;;;;8.45;6.60;;;22.70;99.90;;;;;;5056070;28;20044;-84
2022/06/05 08:23:04;;;;;;;8.02;6.63;;;22.80;99.90;;;;;;5054846;28;20045;-83
2022/06/05 08:25:29;;;;;;;8.25;6.50;;;22.80;99.90;;;;;;5059118;28;20051;-83
2022/06/05 08:27:55;;;;;;;9.52;6.28;;;22.70;99.90;;;;;;5059788;28;20080;-84
2022/06/05 08:30:20;;;;;;;8.02;5.93;;;22.60;99.90;;;;;;5069314;28;20505;-83
2022/06/05 08:32:46;;;;;;;9.35;6.82;;;22.70;99.90;;;;;;5058399;28;20049;-82
2022/06/05 08:35:12;;;;;;;8.45;6.13;;;22.80;99.90;;;;;;5057874;28;20091;-82
2022/06/05 08:43:20;;;;;;;6.82;5.68;;;23.00;99.90;;;;;;5056601;28;20102;-83
2022/06/05 08:46:15;;;;;;;7.75;6.38;;;23.20;99.40;;;;;;5066845;28;20115;-84
2022/06/05 08:48:51;;;;;;;12.32;5.80;;;23.70;97.70;;;;;;5074037;28;20060;-84
2022/06/05 08:51:32;;;;;;;8.60;5.70;;;24.40;96.50;;;;;;5055775;28;20508;-82
2022/06/05 08:54:00;;;;;;;;;;;24.80;93.40;;;;;;5054231;28;20045;-84
2022/06/05 08:56:48;;;;;;;5.78;5.22;;;25.20;95.00;;;;;;5054053;28;20298;-82
2022/06/05 08:59:25;;;;;;;7.75;6.05;;;25.50;88.50;;;;;;5064256;28;20040;-82
2022/06/05 09:02:02;;;;;;;6.25;5.63;;;25.70;85.80;;;;;;5055594;28;20462;-82
2022/06/05 09:04:44;;;;;;;6.95;5.75;;;25.90;77.10;;;;;;5070706;28;20135;-83
2022/06/05 09:07:15;;;;;;;6.20;5.60;;;26.10;74.90;;;;;;5054387;28;20047;-84
2022/06/05 09:09:59;;;;;;;;;;;26.20;70.90;;;;;;5067003;28;20053;-86
2022/06/05 09:12:35;;;;;;;5.50;4.93;;;26.30;72.10;;;;;;5055326;28;19971;-81
2022/06/05 09:15:19;;;;;;;5.95;4.80;;;26.10;72.00;;;;;;5053168;28;20045;-82
2022/06/05 09:17:57;;;;;;;7.90;5.63;;;26.20;71.50;;;;;;5052920;28;20041;-80
2022/06/05 09:20:41;;;;;;;6.47;5.38;;;26.10;67.90;;;;;;5053362;28;20041;-82
2022/06/05 09:23:18;;;;;;;6.07;5.13;;;26.00;66.10;;;;;;5058236;28;20131;-80
2022/06/05 09:26:16;;;;;;;7.03;5.47;;;25.90;68.20;;;;;;5064610;28;20056;-83
2022/06/05 09:29:00;;;;;;;6.10;5.50;;;25.70;68.20;;;;;;5064537;28;20136;-81
2022/06/05 09:31:41;;;;;;;6.15;5.28;;;25.50;74.00;;;;;;5073387;28;20489;-82
2022/06/05 09:34:20;;;;;;;8.75;6.00;;;25.30;71.80;;;;;;5063048;28;20048;-84
2022/06/05 09:37:02;;;;;;;7.90;5.75;;;25.20;73.20;;;;;;5053878;28;20080;-83
2022/06/05 09:39:39;;;;;;;8.05;5.32;;;25.00;75.20;;;;;;5056317;28;20072;-83
2022/06/05 09:42:23;;;;;;;8.05;6.13;;;24.90;77.60;;;;;;5072663;28;20048;-81
2022/06/05 09:45:33;;;;;;;5.30;4.80;;;24.60;78.00;;;;;;5073034;28;20052;-82
2022/06/05 09:48:38;;;;;;;7.25;5.40;;;24.40;81.80;;;;;;5067907;28;20071;-81
2022/06/05 09:51:09;;;;;;;9.30;5.80;;;24.30;84.40;;;;;;5030618;28;20060;-85
2022/06/05 09:53:45;;;;;;;6.88;5.55;;;24.30;83.80;;;;;;5014477;28;20061;-83
2022/06/05 09:59:38;;;;;;;6.50;5.30;;;24.30;85.50;;;;;;5031234;28;20080;-82
2022/06/05 10:02:06;;;;;;;8.00;5.28;;;24.40;91.10;;;;;;5031271;28;20057;-81
2022/06/05 10:04:33;;;;;;;6.80;5.13;;;24.40;91.50;;;;;;5007482;28;20045;-86
2022/06/05 10:07:06;;;;;;;9.45;5.53;;;24.40;89.30;;;;;;5031108;28;20064;-82
2022/06/05 10:09:34;;;;;;;11.85;5.40;;;24.40;90.10;;;;;;5031015;28;20071;-81
2022/06/05 10:12:04;;;;;;;7.78;5.43;;;24.40;90.40;;;;;;5030047;28;20042;-81
2022/06/05 10:14:51;;;;;;;8.10;5.50;;;24.50;88.60;;;;;;5030366;28;20099;-81
2022/06/05 10:17:41;;;;;;;8.63;5.97;;;24.50;89.60;;;;;;5030381;28;20152;-81
2022/06/05 10:20:12;;;;;;;6.15;5.55;;;24.40;90.70;;;;;;5014930;28;20649;-89
2022/06/05 10:23:12;;;;;;;8.80;5.90;;;24.40;91.70;;;;;;4997882;28;20170;-81
2022/06/05 10:25:43;;;;;;;7.47;5.57;;;24.30;92.20;;;;;;5030593;28;20140;-81
2022/06/05 10:28:15;;;;;;;7.25;4.90;;;24.10;93.50;;;;;;5041952;28;20052;-81
2022/06/05 10:30:59;;;;;;;5.93;5.13;;;24.20;94.70;;;;;;5052523;28;20098;-83
2022/06/05 10:33:39;;;;;;;9.70;5.47;;;24.30;94.50;;;;;;5054823;28;20079;-82
2022/06/05 10:36:14;;;;;;;6.13;4.88;;;24.30;93.10;;;;;;5052848;28;20055;-81
2022/06/05 10:39:00;;;;;;;7.60;5.50;;;24.20;94.60;;;;;;5053146;28;20044;-82
2022/06/05 10:41:38;;;;;;;7.63;5.85;;;24.30;94.80;;;;;;5052803;28;20513;-82
2022/06/05 10:44:16;;;;;;;7.43;5.32;;;24.30;92.60;;;;;;5054227;28;20052;-82
2022/06/05 10:47:05;;;;;;;10.05;5.80;;;24.30;94.10;;;;;;5050678;28;20052;-83
2022/06/05 10:49:46;;;;;;;5.82;4.97;;;24.30;93.20;;;;;;5010699;28;20054;-82
2022/06/05 10:52:30;;;;;;;6.47;5.22;;;24.30;94.30;;;;;;4994654;28;20061;-81
2022/06/05 10:54:59;;;;;;;10.13;5.65;;;24.30;94.40;;;;;;4999503;28;20424;-83
2022/06/05 10:57:39;;;;;;;9.80;5.82;;;24.30;92.80;;;;;;4974951;28;20050;-83
2022/06/05 11:00:19;;;;;;;8.18;5.97;;;24.10;93.50;;;;;;4974652;28;20062;-81
2022/06/05 11:02:47;;;;;;;6.68;5.28;;;24.00;93.80;;;;;;4990120;28;20201;-82
2022/06/05 11:05:48;;;;;;;6.45;5.45;;;24.00;95.30;;;;;;4967981;28;20054;-82
2022/06/05 11:08:24;;;;;;;10.68;6.00;;;24.00;93.10;;;;;;4932810;29;20055;-83
2022/06/05 11:14:32;;;;;;;8.75;5.93;;;24.00;95.00;;;;;;4914075;29;20055;-82
2022/06/05 11:17:19;;;;;;;6.70;5.75;;;23.90;94.60;;;;;;4913305;29;20044;-89
2022/06/05 11:20:06;;;;;;;6.53;5.63;;;23.90;94.20;;;;;;4897768;29;20060;-82
2022/06/05 11:22:36;;;;;;;9.32;5.55;;;23.90;95.10;;;;;;4913812;29;20411;-82
2022/06/05 11:25:22;;;;;;;7.05;5.78;;;23.90;96.10;;;;;;4913059;29;20540;-83
2022/06/05 11:27:51;;;;;;;5.93;5.43;;;23.90;96.00;;;;;;4898061;29;20052;-82
2022/06/05 11:30:39;;;;;;;7.20;5.60;;;23.90;97.10;;;;;;4898006;29;20055;-82
2022/06/05 11:33:27;;;;;;;6.22;5.55;;;23.90;97.90;;;;;;4912820;29;20067;-81
2022/06/05 11:36:17;;;;;;;11.35;5.72;;;24.00;97.00;;;;;;4951409;28;20051;-81
2022/06/05 11:38:58;;;;;;;9.25;5.20;;;24.00;93.80;;;;;;4951566;28;20106;-82
2022/06/05 11:41:40;;;;;;;6.63;5.20;;;24.00;96.50;;;;;;4951950;28;20094;-82
2022/06/05 11:44:21;;;;;;;5.78;5.20;;;24.00;95.90;;;;;;4942392;28;20126;-85
2022/06/05 11:46:57;;;;;;;6.05;5.10;;;24.00;96.00;;;;;;5031448;28;20049;-82
2022/06/05 11:49:56;;;;;;;8.15;5.70;;;24.00;94.20;;;;;;5031273;28;20053;-82
2022/06/05 11:52:48;;;;;;;6.50;5.13;;;24.10;93.40;;;;;;5031992;28;20132;-82
2022/06/05 11:55:22;;;;;;;7.95;5.47;;;24.00;94.40;;;;;;5027049;28;20058;-82
2022/06/05 11:58:11;;;;;;;5.28;4.82;;;23.90;94.50;;;;;;5031629;28;20567;-82
2022/06/05 12:00:52;;;;;;;6.10;5.47;;;23.90;96.30;;;;;;5034827;28;20506;-82
2022/06/05 12:03:28;;;;;;;10.52;5.82;;;23.90;95.60;;;;;;5036284;28;20139;-82
2022/06/05 12:05:54;;;;;;;6.97;5.82;;;23.80;95.30;;;;;;5053558;28;20063;-82
2022/06/05 12:08:23;;;;;;;8.80;5.63;;;23.80;95.90;;;;;;5055097;28;20425;-82
2022/06/05 12:10:56;;;;;;;6.03;5.53;;;23.70;97.60;;;;;;5054355;28;20041;-81
2022/06/05 12:13:42;;;;;;;6.40;5.25;;;23.70;98.10;;;;;;5073634;28;20048;-83
2022/06/05 12:16:10;;;;;;;5.85;5.13;;;23.70;97.30;;;;;;5056694;28;20379;-85
2022/06/05 12:19:02;;;;;;;5.28;4.63;;;23.70;97.30;;;;;;5074731;28;20383;-81
2022/06/05 12:21:34;;;;;;;7.72;5.22;;;23.80;97.60;;;;;;5075006;28;20490;-82
2022/06/05 12:24:15;;;;;;;7.20;5.20;;;23.90;96.80;;;;;;5074919;28;20117;-82
2022/06/05 12:26:53;;;;;;;5.60;4.70;;;24.00;95.60;;;;;;5074808;28;20056;-82
2022/06/05 12:29:20;;;;;;;7.05;4.85;;;24.10;95.40;;;;;;5074054;28;20398;-84
2022/06/05 12:31:53;;;;;;;5.20;4.72;;;24.10;95.50;;;;;;5057128;28;20049;-81
2022/06/05 12:34:22;;;;;;;7.60;5.05;;;24.20;96.00;;;;;;5074843;28;20048;-82
2022/06/05 12:36:58;;;;;;;10.23;4.95;;;24.30;95.20;;;;;;5073590;28;20451;-82
2022/06/05 12:39:31;;;;;;;5.32;4.53;;;24.30;95.50;;;;;;5073422;28;20450;-82
2022/06/05 12:42:39;;;;;;;7.35;4.95;;;24.40;95.70;;;;;;5075268;28;20494;-82
2022/06/05 12:45:27;;;;;;;10.73;5.72;;;24.40;94.50;;;;;;5012742;28;20058;-83
2022/06/05 12:48:19;;;;;;;5.30;4.80;;;24.40;94.00;;;;;;5012670;28;20486;-82
2022/06/05 12:50:53;;;;;;;6.90;5.47;;;24.50;95.20;;;;;;5012894;28;20542;-83
2022/06/05 12:53:31;;;;;;;5.18;4.60;;;24.40;94.50;;;;;;5012580;28;20053;-82
2022/06/05 12:56:11;;;;;;;5.72;4.90;;;24.40;95.70;;;;;;5012859;28;20057;-84
2022/06/05 12:58:50;;;;;;;7.30;5.07;;;24.50;94.90;;;;;;5012734;28;20494;-82
2022/06/05 13:01:33;;;;;;;8.57;4.97;;;24.60;94.40;;;;;;5012111;28;20049;-81
2022/06/05 13:04:27;;;;;;;7.22;5.07;;;24.70;95.60;;;;;;5005353;28;20504;-82
2022/06/05 13:07:12;;;;;;;6.18;5.00;;;24.90;93.90;;;;;;4986375;28;20126;-81
2022/06/05 13:09:55;;;;;;;5.95;5.20;;;25.00;92.80;;;;;;5012217;28;20062;-82
2022/06/05 13:12:45;;;;;;;5.97;5.03;;;25.20;91.20;;;;;;5013991;28;20105;-82
2022/06/05 13:15:46;;;;;;;5.68;4.97;;;25.30;90.30;;;;;;4995809;28;20062;-82
2022/06/05 13:18:38;;;;;;;10.63;4.93;;;25.60;82.90;;;;;;4995653;28;20718;-82
2022/06/05 13:21:24;;;;;;;5.82;4.40;;;26.00;83.50;;;;;;4993487;28;20114;-81
2022/06/05 13:24:11;;;;;;;4.97;4.55;;;26.30;81.80;;;;;;5053564;28;20048;-82
2022/06/05 13:26:53;;;;;;;6.38;4.95;;;26.60;77.70;;;;;;5054365;28;20053;-82
2022/06/05 13:29:54;;;;;;;6.28;4.63;;;26.80;74.30;;;;;;5053877;28;20053;-83
2022/06/05 13:32:39;;;;;;;7.38;4.40;;;26.90;71.40;;;;;;5053892;28;20053;-82
2022/06/05 13:35:29;;;;;;;6.55;4.53;;;26.80;66.90;;;;;;5070222;28;20131;-84